createdAt,value
2022-10-29T00:00:01.142Z,1020.12
2022-10-29T00:01:05.451Z,1020.12
2022-10-29T00:02:01.225Z,1020.09
2022-10-29T00:03:00.985Z,1020.14
2022-10-29T00:04:00.755Z,1020.11
2022-10-29T00:05:00.393Z,1020.15
2022-10-29T00:06:07.811Z,1020.15
2022-10-29T00:07:01.972Z,1020.18
2022-10-29T00:08:01.456Z,1020.17
2022-10-29T00:09:01.071Z,1020.18
2022-10-29T00:10:00.942Z,1020.15
2022-10-29T00:11:11.274Z,1020.19
2022-10-29T00:12:01.487Z,1020.14
2022-10-29T00:13:02.009Z,1020.19
2022-10-29T00:14:01.103Z,1020.17
2022-10-29T00:15:01.111Z,1020.15
2022-10-29T00:16:14.476Z,1020.1
2022-10-29T00:17:01.137Z,1020.08
2022-10-29T00:18:01.121Z,1020.04
2022-10-29T00:19:01.128Z,1020.09
2022-10-29T00:20:01.610Z,1020.05
2022-10-29T00:21:17.031Z,1020.05
2022-10-29T00:22:02.225Z,1020.02
2022-10-29T00:23:01.073Z,1020.03
2022-10-29T00:24:01.066Z,1020.05
2022-10-29T00:25:01.088Z,1020.03
2022-10-29T00:26:01.047Z,1020.07
2022-10-29T00:27:01.317Z,1020.1
2022-10-29T00:28:01.081Z,1020.07
2022-10-29T00:29:01.116Z,1020.1
2022-10-29T00:30:02.645Z,1020.08
2022-10-29T00:31:01.482Z,1020.05
2022-10-29T00:32:01.148Z,1020.06
2022-10-29T00:33:01.122Z,1020.05
2022-10-29T00:34:01.120Z,1020.07
2022-10-29T00:35:01.532Z,1020.06
2022-10-29T00:36:01.520Z,1020.05
2022-10-29T00:37:01.244Z,1020.05
2022-10-29T00:38:01.158Z,1020.03
2022-10-29T00:39:03.867Z,1019.96
2022-10-29T00:40:01.383Z,1019.92
2022-10-29T00:41:01.071Z,1019.95
2022-10-29T00:42:01.103Z,1019.93
2022-10-29T00:43:01.120Z,1019.87
2022-10-29T00:44:01.127Z,1019.91
2022-10-29T00:45:04.999Z,1019.91
2022-10-29T00:46:01.214Z,1019.95
2022-10-29T00:47:01.121Z,1019.97
2022-10-29T00:48:01.109Z,1019.91
2022-10-29T00:49:01.736Z,1019.98
2022-10-29T00:50:01.331Z,1019.96
2022-10-29T00:51:01.519Z,1019.95
2022-10-29T00:52:01.227Z,1019.88
2022-10-29T00:53:01.531Z,1019.85
2022-10-29T00:54:01.530Z,1019.87
2022-10-29T00:55:01.091Z,1019.86
2022-10-29T00:56:01.388Z,1019.9
2022-10-29T00:57:01.106Z,1019.9
2022-10-29T00:58:01.082Z,1019.87
2022-10-29T00:59:01.111Z,1019.81
2022-10-29T01:00:01.108Z,1019.8
2022-10-29T01:01:01.427Z,1019.81
2022-10-29T01:02:01.652Z,1019.81
2022-10-29T01:03:04.727Z,1019.82
2022-10-29T01:04:01.796Z,1019.78
2022-10-29T01:05:01.369Z,1019.81
2022-10-29T01:06:01.134Z,1019.88
2022-10-29T01:07:01.520Z,1019.88
2022-10-29T01:08:01.248Z,1019.81
2022-10-29T01:09:01.285Z,1019.85
2022-10-29T01:10:01.064Z,1019.87
2022-10-29T01:11:01.072Z,1019.88
2022-10-29T01:12:01.213Z,1019.9
2022-10-29T01:13:01.789Z,1019.86
2022-10-29T01:14:01.396Z,1019.89
2022-10-29T01:15:02.233Z,1019.91
2022-10-29T01:16:01.223Z,1019.91
2022-10-29T01:17:01.963Z,1019.91
2022-10-29T01:18:01.111Z,1019.86
2022-10-29T01:19:01.305Z,1019.91
2022-10-29T01:20:01.068Z,1019.96
2022-10-29T01:21:01.785Z,1019.97
2022-10-29T01:22:01.072Z,1019.95
2022-10-29T01:23:01.097Z,1019.96
2022-10-29T01:24:01.081Z,1019.95
2022-10-29T01:25:01.259Z,1019.9
2022-10-29T01:26:01.473Z,1019.89
2022-10-29T01:27:02.933Z,1019.9
2022-10-29T01:28:01.072Z,1019.92
2022-10-29T01:29:01.094Z,1019.89
2022-10-29T01:30:01.044Z,1019.91
2022-10-29T01:31:01.111Z,1019.92
2022-10-29T01:32:01.326Z,1019.9
2022-10-29T01:33:01.364Z,1019.87
2022-10-29T01:34:01.489Z,1019.89
2022-10-29T01:35:02.115Z,1019.93
2022-10-29T01:36:01.249Z,1019.99
2022-10-29T01:37:01.119Z,1019.98
2022-10-29T01:38:01.155Z,1020.01
2022-10-29T01:39:01.155Z,1020.04
2022-10-29T01:40:01.159Z,1020.11
2022-10-29T01:41:01.056Z,1020.15
2022-10-29T01:42:00.826Z,1020.17
2022-10-29T01:43:00.615Z,1020.17
2022-10-29T01:44:00.272Z,1020.21
2022-10-29T01:44:59.838Z,1020.21
2022-10-29T01:46:01.781Z,1020.28
2022-10-29T01:47:03.717Z,1020.25
2022-10-29T01:48:01.827Z,1020.23
2022-10-29T01:49:02.106Z,1020.25
2022-10-29T01:50:02.182Z,1020.27
2022-10-29T01:51:01.115Z,1020.3
2022-10-29T01:52:08.925Z,1020.3
2022-10-29T01:53:01.387Z,1020.37
2022-10-29T01:54:01.887Z,1020.33
2022-10-29T01:55:02.679Z,1020.34
2022-10-29T01:56:01.141Z,1020.31
2022-10-29T01:57:11.619Z,1020.29
2022-10-29T01:58:01.752Z,1020.28
2022-10-29T01:59:02.164Z,1020.29
2022-10-29T02:00:01.817Z,1020.21
2022-10-29T02:01:01.185Z,1020.22
2022-10-29T02:02:15.282Z,1020.21
2022-10-29T02:03:02.426Z,1020.19
2022-10-29T02:04:01.096Z,1020.21
2022-10-29T02:05:01.117Z,1020.18
2022-10-29T02:06:01.111Z,1020.19
2022-10-29T02:07:01.134Z,1020.18
2022-10-29T02:08:01.219Z,1020.17
2022-10-29T02:09:01.127Z,1020.27
2022-10-29T02:10:01.550Z,1020.24
2022-10-29T02:11:01.529Z,1020.24
2022-10-29T02:12:01.295Z,1020.28
2022-10-29T02:13:02.104Z,1020.25
2022-10-29T02:14:00.618Z,1020.28
2022-10-29T02:15:00.314Z,1020.27
2022-10-29T02:16:00.186Z,1020.23
2022-10-29T02:16:59.830Z,1020.29
2022-10-29T02:18:01.506Z,1020.31
2022-10-29T02:19:00.693Z,1020.32
2022-10-29T02:20:00.398Z,1020.31
2022-10-29T02:21:00.066Z,1020.32
2022-10-29T02:21:59.774Z,1020.34
2022-10-29T02:23:01.406Z,1020.35
2022-10-29T02:24:02.458Z,1020.35
2022-10-29T02:25:02.695Z,1020.36
2022-10-29T02:26:01.132Z,1020.39
2022-10-29T02:27:01.152Z,1020.38
2022-10-29T02:28:01.044Z,1020.39
2022-10-29T02:29:01.063Z,1020.41
2022-10-29T02:30:01.459Z,1020.37
2022-10-29T02:31:01.424Z,1020.34
2022-10-29T02:32:01.517Z,1020.32
2022-10-29T02:33:01.082Z,1020.3
2022-10-29T02:34:01.048Z,1020.33
2022-10-29T02:35:01.098Z,1020.35
2022-10-29T02:36:01.098Z,1020.32
2022-10-29T02:37:01.111Z,1020.35
2022-10-29T02:38:01.492Z,1020.36
2022-10-29T02:39:01.228Z,1020.34
2022-10-29T02:40:01.146Z,1020.34
2022-10-29T02:41:01.151Z,1020.32
2022-10-29T02:42:01.134Z,1020.3
2022-10-29T02:43:01.154Z,1020.36
2022-10-29T02:44:01.565Z,1020.4
2022-10-29T02:45:01.067Z,1020.37
2022-10-29T02:46:01.101Z,1020.37
2022-10-29T02:47:01.071Z,1020.43
2022-10-29T02:48:01.076Z,1020.42
2022-10-29T02:49:01.079Z,1020.51
2022-10-29T02:50:01.484Z,1020.46
2022-10-29T02:51:01.475Z,1020.47
2022-10-29T02:52:02.107Z,1020.45
2022-10-29T02:53:01.113Z,1020.49
2022-10-29T02:54:01.324Z,1020.49
2022-10-29T02:55:01.143Z,1020.45
2022-10-29T02:56:01.166Z,1020.42
2022-10-29T02:57:01.264Z,1020.46
2022-10-29T02:58:01.226Z,1020.49
2022-10-29T02:59:01.265Z,1020.57
2022-10-29T03:00:01.166Z,1020.59
2022-10-29T03:01:01.161Z,1020.59
2022-10-29T03:02:01.336Z,1020.68
2022-10-29T03:03:02.668Z,1020.7
2022-10-29T03:04:01.047Z,1020.71
2022-10-29T03:05:01.077Z,1020.72
2022-10-29T03:06:01.083Z,1020.72
2022-10-29T03:07:01.047Z,1020.77
2022-10-29T03:08:01.059Z,1020.7
2022-10-29T03:09:00.772Z,1020.68
2022-10-29T03:10:00.402Z,1020.72
2022-10-29T03:11:00.078Z,1020.7
2022-10-29T03:11:59.759Z,1020.74
2022-10-29T03:13:04.445Z,1020.75
2022-10-29T03:14:01.533Z,1020.77
2022-10-29T03:15:02.604Z,1020.76
2022-10-29T03:16:01.261Z,1020.73
2022-10-29T03:17:01.955Z,1020.77
2022-10-29T03:18:07.858Z,1020.73
2022-10-29T03:19:01.072Z,1020.74
2022-10-29T03:20:01.077Z,1020.78
2022-10-29T03:21:01.086Z,1020.78
2022-10-29T03:22:01.105Z,1020.78
2022-10-29T03:23:05.115Z,1020.84
2022-10-29T03:24:01.251Z,1020.82
2022-10-29T03:25:02.114Z,1020.86
2022-10-29T03:26:02.120Z,1020.85
2022-10-29T03:27:01.231Z,1020.85
2022-10-29T03:28:12.817Z,1020.87
2022-10-29T03:29:01.926Z,1020.83
2022-10-29T03:30:00.716Z,1020.83
2022-10-29T03:31:00.419Z,1020.85
2022-10-29T03:32:00.221Z,1020.83
2022-10-29T03:33:15.054Z,1020.85
2022-10-29T03:34:01.942Z,1020.82
2022-10-29T03:35:01.114Z,1020.8
2022-10-29T03:36:01.311Z,1020.81
2022-10-29T03:37:01.215Z,1020.77
2022-10-29T03:38:01.172Z,1020.81
2022-10-29T03:39:01.416Z,1020.81
2022-10-29T03:40:01.094Z,1020.83
2022-10-29T03:41:01.129Z,1020.81
2022-10-29T03:42:01.119Z,1020.81
2022-10-29T03:43:01.113Z,1020.82
2022-10-29T03:44:00.850Z,1020.77
2022-10-29T03:45:00.510Z,1020.82
2022-10-29T03:46:00.268Z,1020.86
2022-10-29T03:46:59.883Z,1020.81
2022-10-29T03:47:59.517Z,1020.85
2022-10-29T03:49:01.102Z,1020.83
2022-10-29T03:50:01.496Z,1020.85
2022-10-29T03:51:02.199Z,1020.86
2022-10-29T03:52:01.513Z,1020.89
2022-10-29T03:53:02.114Z,1020.87
2022-10-29T03:54:01.504Z,1020.87
2022-10-29T03:55:01.099Z,1020.86
2022-10-29T03:56:01.800Z,1020.87
2022-10-29T03:57:01.211Z,1020.91
2022-10-29T03:58:01.115Z,1020.91
2022-10-29T03:59:01.187Z,1020.92
2022-10-29T04:00:01.549Z,1020.95
2022-10-29T04:01:02.168Z,1020.91
2022-10-29T04:02:02.177Z,1020.88
2022-10-29T04:03:01.682Z,1020.91
2022-10-29T04:04:01.157Z,1020.9
2022-10-29T04:05:01.800Z,1020.88
2022-10-29T04:06:02.474Z,1020.9
2022-10-29T04:07:01.059Z,1020.93
2022-10-29T04:08:01.076Z,1020.88
2022-10-29T04:09:01.458Z,1020.87
2022-10-29T04:10:02.414Z,1020.91
2022-10-29T04:11:01.777Z,1020.92
2022-10-29T04:12:01.501Z,1020.93
2022-10-29T04:13:01.144Z,1020.91
2022-10-29T04:14:01.108Z,1020.89
2022-10-29T04:15:01.084Z,1020.94
2022-10-29T04:16:01.139Z,1020.9
2022-10-29T04:17:01.326Z,1020.94
2022-10-29T04:18:01.431Z,1020.94
2022-10-29T04:19:00.962Z,1021
2022-10-29T04:20:01.047Z,1020.96
2022-10-29T04:24:35.778Z,1020.97
2022-10-29T04:28:32.859Z,1021.01
2022-10-29T04:29:03.017Z,1021.07
2022-10-29T04:30:01.178Z,1021.02
2022-10-29T04:31:01.141Z,1021.02
2022-10-29T04:32:01.128Z,1021.05
2022-10-29T04:33:01.135Z,1021.06
2022-10-29T04:34:01.878Z,1021.03
2022-10-29T04:35:00.688Z,1021.01
2022-10-29T04:36:00.374Z,1020.98
2022-10-29T04:37:00.032Z,1020.97
2022-10-29T04:37:59.728Z,1021
2022-10-29T04:39:01.347Z,1021.01
2022-10-29T04:40:00.999Z,1021.01
2022-10-29T04:41:01.453Z,1021.03
2022-10-29T04:42:02.005Z,1021.01
2022-10-29T04:43:01.126Z,1021.04
2022-10-29T04:44:01.442Z,1021.03
2022-10-29T04:45:01.779Z,1020.99
2022-10-29T04:46:02.036Z,1021.01
2022-10-29T04:47:02.027Z,1020.98
2022-10-29T04:48:01.147Z,1021.01
2022-10-29T04:49:01.233Z,1020.97
2022-10-29T04:50:00.549Z,1021.01
2022-10-29T04:51:00.557Z,1021.04
2022-10-29T04:52:00.565Z,1021.1
2022-10-29T04:53:00.254Z,1021.12
2022-10-29T04:54:02.391Z,1021.12
2022-10-29T04:55:01.066Z,1021.08
2022-10-29T04:56:01.073Z,1021.08
2022-10-29T04:57:01.108Z,1021.1
2022-10-29T04:58:01.133Z,1021.09
2022-10-29T04:59:04.989Z,1021.06
2022-10-29T05:00:01.505Z,1021.12
2022-10-29T05:01:01.423Z,1021.12
2022-10-29T05:02:01.036Z,1021.08
2022-10-29T05:03:01.142Z,1021.04
2022-10-29T05:04:07.866Z,1021.04
2022-10-29T05:05:01.128Z,1021.03
2022-10-29T05:06:01.135Z,1021.04
2022-10-29T05:07:01.150Z,1021.04
2022-10-29T05:08:01.065Z,1021.04
2022-10-29T05:09:09.291Z,1021
2022-10-29T05:10:00.961Z,1021.02
2022-10-29T05:11:01.069Z,1021.01
2022-10-29T05:12:01.077Z,1021.07
2022-10-29T05:13:01.235Z,1021.03
2022-10-29T05:14:11.563Z,1021.07
2022-10-29T05:15:01.214Z,1021.04
2022-10-29T05:16:01.800Z,1021.07
2022-10-29T05:17:01.194Z,1021.11
2022-10-29T05:18:01.129Z,1021.12
2022-10-29T05:19:14.805Z,1021.15
2022-10-29T05:20:01.055Z,1021.12
2022-10-29T05:21:01.138Z,1021.14
2022-10-29T05:22:01.287Z,1021.12
2022-10-29T05:23:01.541Z,1021.14
2022-10-29T05:24:17.362Z,1021.16
2022-10-29T05:25:01.234Z,1021.15
2022-10-29T05:26:01.072Z,1021.12
2022-10-29T05:27:01.076Z,1021.11
2022-10-29T05:28:01.087Z,1021.09
2022-10-29T05:29:01.105Z,1021.07
2022-10-29T05:30:01.460Z,1021.12
2022-10-29T05:31:01.669Z,1021.05
2022-10-29T05:32:01.728Z,1021.03
2022-10-29T05:33:01.107Z,1021.05
2022-10-29T05:34:01.068Z,1021.01
2022-10-29T05:35:01.061Z,1021.08
2022-10-29T05:36:01.051Z,1021.07
2022-10-29T05:37:01.135Z,1021.08
2022-10-29T05:38:01.191Z,1021.14
2022-10-29T05:39:01.410Z,1021.13
2022-10-29T05:40:01.085Z,1021.11
2022-10-29T05:41:01.741Z,1021.12
2022-10-29T05:42:01.049Z,1021.06
2022-10-29T05:43:01.471Z,1021.05
2022-10-29T05:44:01.086Z,1021.04
2022-10-29T05:45:01.078Z,1021.09
2022-10-29T05:46:01.064Z,1021.12
2022-10-29T05:47:01.107Z,1021.14
2022-10-29T05:48:01.156Z,1021.11
2022-10-29T05:49:01.055Z,1021.18
2022-10-29T05:50:01.558Z,1021.19
2022-10-29T05:51:02.118Z,1021.21
2022-10-29T05:52:01.448Z,1021.24
2022-10-29T05:53:02.163Z,1021.18
2022-10-29T05:54:01.463Z,1021.18
2022-10-29T05:55:01.172Z,1021.23
2022-10-29T05:56:01.088Z,1021.17
2022-10-29T05:57:01.061Z,1021.14
2022-10-29T05:58:01.090Z,1021.17
2022-10-29T05:59:01.074Z,1021.17
2022-10-29T06:00:00.980Z,1021.13
2022-10-29T06:01:01.606Z,1021.15
2022-10-29T06:02:01.798Z,1021.13
2022-10-29T06:03:01.338Z,1021.09
2022-10-29T06:04:01.106Z,1021.08
2022-10-29T06:05:01.200Z,1021.04
2022-10-29T06:06:01.285Z,1021.03
2022-10-29T06:07:01.147Z,1021.04
2022-10-29T06:08:01.706Z,1020.99
2022-10-29T06:09:01.462Z,1020.99
2022-10-29T06:10:01.210Z,1020.99
2022-10-29T06:11:01.327Z,1021.04
2022-10-29T06:12:01.058Z,1021.08
2022-10-29T06:13:01.072Z,1021.09
2022-10-29T06:14:01.735Z,1021.08
2022-10-29T06:15:00.698Z,1021.09
2022-10-29T06:16:00.688Z,1021.11
2022-10-29T06:17:00.363Z,1021.1
2022-10-29T06:17:59.931Z,1021.12
2022-10-29T06:18:59.544Z,1021.13
2022-10-29T06:20:01.837Z,1021.14
2022-10-29T06:21:01.186Z,1021.18
2022-10-29T06:22:01.570Z,1021.2
2022-10-29T06:23:01.956Z,1021.16
2022-10-29T06:24:01.725Z,1021.2
2022-10-29T06:25:01.515Z,1021.15
2022-10-29T06:26:03.745Z,1021.18
2022-10-29T06:27:01.552Z,1021.17
2022-10-29T06:28:01.552Z,1021.17
2022-10-29T06:29:01.410Z,1021.22
2022-10-29T06:30:02.683Z,1021.24
2022-10-29T06:31:01.628Z,1021.24
2022-10-29T06:32:01.341Z,1021.25
2022-10-29T06:33:01.518Z,1021.29
2022-10-29T06:34:01.457Z,1021.33
2022-10-29T06:35:02.290Z,1021.37
2022-10-29T06:36:01.114Z,1021.33
2022-10-29T06:37:01.116Z,1021.37
2022-10-29T06:38:01.832Z,1021.38
2022-10-29T06:39:01.235Z,1021.4
2022-10-29T06:40:01.753Z,1021.42
2022-10-29T06:41:01.918Z,1021.42
2022-10-29T06:42:01.546Z,1021.44
2022-10-29T06:43:00.635Z,1021.43
2022-10-29T06:44:00.245Z,1021.43
2022-10-29T06:45:05.432Z,1021.45
2022-10-29T06:46:01.063Z,1021.49
2022-10-29T06:47:01.183Z,1021.52
2022-10-29T06:48:01.106Z,1021.5
2022-10-29T06:49:01.094Z,1021.49
2022-10-29T06:50:08.900Z,1021.48
2022-10-29T06:51:01.099Z,1021.49
2022-10-29T06:52:02.228Z,1021.52
2022-10-29T06:53:01.559Z,1021.48
2022-10-29T06:54:01.272Z,1021.47
2022-10-29T06:55:12.851Z,1021.51
2022-10-29T06:56:02.049Z,1021.51
2022-10-29T06:57:01.116Z,1021.45
2022-10-29T06:58:00.832Z,1021.45
2022-10-29T06:59:00.537Z,1021.43
2022-10-29T07:00:15.143Z,1021.44
2022-10-29T07:01:02.450Z,1021.44
2022-10-29T07:02:01.470Z,1021.42
2022-10-29T07:03:01.877Z,1021.45
2022-10-29T07:04:01.210Z,1021.42
2022-10-29T07:05:01.086Z,1021.42
2022-10-29T07:06:01.060Z,1021.46
2022-10-29T07:07:01.071Z,1021.47
2022-10-29T07:08:01.207Z,1021.43
2022-10-29T07:09:00.810Z,1021.47
2022-10-29T07:10:00.401Z,1021.46
2022-10-29T07:11:00.014Z,1021.44
2022-10-29T07:11:59.584Z,1021.49
2022-10-29T07:13:02.271Z,1021.51
2022-10-29T07:14:02.212Z,1021.47
2022-10-29T07:15:02.205Z,1021.52
2022-10-29T07:16:01.251Z,1021.6
2022-10-29T07:17:01.077Z,1021.62
2022-10-29T07:18:01.077Z,1021.62
2022-10-29T07:19:01.220Z,1021.59
2022-10-29T07:20:01.090Z,1021.63
2022-10-29T07:21:01.587Z,1021.64
2022-10-29T07:22:02.123Z,1021.69
2022-10-29T07:23:02.315Z,1021.63
2022-10-29T07:24:01.119Z,1021.64
2022-10-29T07:25:01.480Z,1021.62
2022-10-29T07:26:01.152Z,1021.6
2022-10-29T07:27:01.150Z,1021.61
2022-10-29T07:28:01.483Z,1021.6
2022-10-29T07:29:01.166Z,1021.58
2022-10-29T07:30:01.231Z,1021.64
2022-10-29T07:31:01.162Z,1021.61
2022-10-29T07:32:01.062Z,1021.63
2022-10-29T07:33:01.065Z,1021.58
2022-10-29T07:34:01.084Z,1021.57
2022-10-29T07:35:01.096Z,1021.56
2022-10-29T07:36:01.085Z,1021.57
2022-10-29T07:37:01.090Z,1021.52
2022-10-29T07:38:05.292Z,1021.49
2022-10-29T07:39:01.404Z,1021.52
2022-10-29T07:40:01.405Z,1021.53
2022-10-29T07:41:01.118Z,1021.5
2022-10-29T07:42:01.152Z,1021.57
2022-10-29T07:43:00.836Z,1021.53
2022-10-29T07:44:00.721Z,1021.56
2022-10-29T07:45:00.381Z,1021.53
2022-10-29T07:46:00.293Z,1021.54
2022-10-29T07:46:59.924Z,1021.55
2022-10-29T07:48:02.725Z,1021.53
2022-10-29T07:49:01.346Z,1021.5
2022-10-29T07:50:02.155Z,1021.47
2022-10-29T07:51:01.996Z,1021.48
2022-10-29T07:52:01.239Z,1021.48
2022-10-29T07:53:01.490Z,1021.43
2022-10-29T07:54:01.097Z,1021.48
2022-10-29T07:55:01.110Z,1021.46
2022-10-29T07:56:01.112Z,1021.5
2022-10-29T07:57:01.335Z,1021.54
2022-10-29T07:58:01.161Z,1021.56
2022-10-29T07:59:01.150Z,1021.6
2022-10-29T08:00:01.154Z,1021.6
2022-10-29T08:01:01.625Z,1021.62
2022-10-29T08:02:01.604Z,1021.63
2022-10-29T08:03:00.793Z,1021.61
2022-10-29T08:04:00.437Z,1021.58
2022-10-29T08:05:00.034Z,1021.55
2022-10-29T08:05:59.740Z,1021.59
2022-10-29T08:07:01.397Z,1021.58
2022-10-29T08:08:02.110Z,1021.6
2022-10-29T08:09:02.625Z,1021.56
2022-10-29T08:10:01.440Z,1021.56
2022-10-29T08:11:01.135Z,1021.56
2022-10-29T08:12:01.112Z,1021.55
2022-10-29T08:13:01.716Z,1021.5
2022-10-29T08:14:01.206Z,1021.51
2022-10-29T08:15:01.136Z,1021.6
2022-10-29T08:16:01.052Z,1021.59
2022-10-29T08:17:01.247Z,1021.62
2022-10-29T08:18:01.289Z,1021.63
2022-10-29T08:19:01.296Z,1021.67
2022-10-29T08:20:01.184Z,1021.64
2022-10-29T08:21:02.855Z,1021.6
2022-10-29T08:22:01.790Z,1021.54
2022-10-29T08:23:01.872Z,1021.57
2022-10-29T08:24:01.905Z,1021.59
2022-10-29T08:25:01.101Z,1021.61
2022-10-29T08:26:05.445Z,1021.61
2022-10-29T08:27:01.319Z,1021.58
2022-10-29T08:28:02.187Z,1021.55
2022-10-29T08:29:02.175Z,1021.54
2022-10-29T08:30:01.154Z,1021.55
2022-10-29T08:31:08.596Z,1021.56
2022-10-29T08:32:01.402Z,1021.56
2022-10-29T08:33:01.816Z,1021.51
2022-10-29T08:34:01.241Z,1021.53
2022-10-29T08:35:01.270Z,1021.55
2022-10-29T08:36:11.806Z,1021.58
2022-10-29T08:37:08.176Z,1021.61
2022-10-29T08:38:01.092Z,1021.65
2022-10-29T08:39:01.111Z,1021.64
2022-10-29T08:40:01.098Z,1021.59
2022-10-29T08:41:14.319Z,1021.56
2022-10-29T08:42:01.165Z,1021.58
2022-10-29T08:43:00.898Z,1021.52
2022-10-29T08:45:01.121Z,1021.55
2022-10-29T08:46:16.882Z,1021.57
2022-10-29T08:47:03.812Z,1021.57
2022-10-29T08:48:01.167Z,1021.6
2022-10-29T08:49:01.193Z,1021.57
2022-10-29T08:50:01.149Z,1021.6
2022-10-29T08:51:01.160Z,1021.61
2022-10-29T08:52:02.002Z,1021.62
2022-10-29T08:55:01.568Z,1021.7
2022-10-29T08:56:01.300Z,1021.66
2022-10-29T08:57:01.204Z,1021.65
2022-10-29T08:58:01.183Z,1021.61
2022-10-29T08:59:01.153Z,1021.6
2022-10-29T09:00:01.170Z,1021.6
2022-10-29T09:01:01.221Z,1021.64
2022-10-29T09:02:01.436Z,1021.68
2022-10-29T09:03:00.840Z,1021.7
2022-10-29T09:04:01.136Z,1021.69
2022-10-29T09:05:01.146Z,1021.68
2022-10-29T09:06:01.205Z,1021.72
2022-10-29T09:07:01.890Z,1021.68
2022-10-29T09:08:02.431Z,1021.7
2022-10-29T09:09:01.127Z,1021.68
2022-10-29T09:10:01.798Z,1021.69
2022-10-29T09:11:01.792Z,1021.72
2022-10-29T09:12:01.871Z,1021.72
2022-10-29T09:13:01.506Z,1021.7
2022-10-29T09:14:02.143Z,1021.65
2022-10-29T09:15:01.220Z,1021.69
2022-10-29T09:16:01.139Z,1021.68
2022-10-29T09:17:01.118Z,1021.7
2022-10-29T09:18:01.133Z,1021.7
2022-10-29T09:19:01.165Z,1021.72
2022-10-29T09:20:01.142Z,1021.7
2022-10-29T09:21:01.192Z,1021.69
2022-10-29T09:22:01.205Z,1021.74
2022-10-29T09:23:01.154Z,1021.7
2022-10-29T09:24:01.879Z,1021.75
2022-10-29T09:25:00.879Z,1021.76
2022-10-29T09:26:00.568Z,1021.77
2022-10-29T09:27:00.260Z,1021.81
2022-10-29T09:28:00.033Z,1021.78
2022-10-29T09:28:59.669Z,1021.78
2022-10-29T09:30:01.772Z,1021.77
2022-10-29T09:31:01.816Z,1021.76
2022-10-29T09:32:01.532Z,1021.8
2022-10-29T09:33:01.170Z,1021.82
2022-10-29T09:34:01.941Z,1021.79
2022-10-29T09:35:01.258Z,1021.8
2022-10-29T09:36:01.201Z,1021.77
2022-10-29T09:37:01.163Z,1021.8
2022-10-29T09:38:01.362Z,1021.78
2022-10-29T09:39:01.074Z,1021.77
2022-10-29T09:40:01.067Z,1021.77
2022-10-29T09:41:01.068Z,1021.75
2022-10-29T09:42:01.355Z,1021.81
2022-10-29T09:43:01.078Z,1021.78
2022-10-29T09:44:01.097Z,1021.8
2022-10-29T09:45:01.099Z,1021.85
2022-10-29T09:46:01.104Z,1021.83
2022-10-29T09:47:04.379Z,1021.84
2022-10-29T09:48:01.049Z,1021.85
2022-10-29T09:49:01.180Z,1021.87
2022-10-29T09:50:05.455Z,1021.87
2022-10-29T09:51:01.137Z,1021.88
2022-10-29T09:52:01.322Z,1021.89
2022-10-29T09:53:01.355Z,1021.87
2022-10-29T09:54:01.540Z,1021.81
2022-10-29T09:55:03.073Z,1021.81
2022-10-29T09:56:01.738Z,1021.83
2022-10-29T09:57:02.511Z,1021.82
2022-10-29T09:58:02.517Z,1021.87
2022-10-29T09:59:01.122Z,1021.82
2022-10-29T10:00:01.763Z,1021.85
2022-10-29T10:01:01.338Z,1021.85
2022-10-29T10:02:01.590Z,1021.89
2022-10-29T10:03:01.521Z,1021.77
2022-10-29T10:05:01.421Z,1021.72
2022-10-29T10:06:02.479Z,1021.72
2022-10-29T10:07:01.299Z,1021.72
2022-10-29T10:08:01.875Z,1021.73
2022-10-29T10:09:01.358Z,1021.74
2022-10-29T10:10:01.540Z,1021.77
2022-10-29T10:11:01.247Z,1021.75
2022-10-29T10:12:02.763Z,1021.73
2022-10-29T10:13:01.893Z,1021.7
2022-10-29T10:14:01.153Z,1021.69
2022-10-29T10:15:01.231Z,1021.7
2022-10-29T10:16:01.078Z,1021.76
2022-10-29T10:17:05.938Z,1021.71
2022-10-29T10:18:02.095Z,1021.73
2022-10-29T10:19:01.045Z,1021.77
2022-10-29T10:20:03.802Z,1021.72
2022-10-29T10:21:03.056Z,1021.77
2022-10-29T10:22:29.869Z,1021.74
2022-10-29T10:23:09.513Z,1021.75
2022-10-29T10:24:19.102Z,1021.73
2022-10-29T10:25:01.542Z,1021.74
2022-10-29T10:26:04.448Z,1021.73
2022-10-29T10:27:13.402Z,1021.7
2022-10-29T10:28:01.128Z,1021.71
2022-10-29T10:29:01.405Z,1021.65
2022-10-29T10:30:01.067Z,1021.71
2022-10-29T10:31:01.802Z,1021.66
2022-10-29T10:32:15.482Z,1021.64
2022-10-29T10:33:01.249Z,1021.6
2022-10-29T10:34:01.925Z,1021.58
2022-10-29T10:35:02.135Z,1021.57
2022-10-29T10:36:01.123Z,1021.53
2022-10-29T10:37:01.128Z,1021.49
2022-10-29T10:38:01.506Z,1021.46
2022-10-29T10:39:01.225Z,1021.4
2022-10-29T10:40:01.151Z,1021.45
2022-10-29T10:41:01.167Z,1021.42
2022-10-29T10:42:01.130Z,1021.44
2022-10-29T10:43:05.312Z,1021.39
2022-10-29T10:44:01.139Z,1021.41
2022-10-29T10:45:01.253Z,1021.43
2022-10-29T10:46:01.279Z,1021.43
2022-10-29T10:47:01.210Z,1021.43
2022-10-29T10:48:01.742Z,1021.41
2022-10-29T10:49:01.051Z,1021.34
2022-10-29T10:50:01.122Z,1021.38
2022-10-29T10:51:01.981Z,1021.34
2022-10-29T10:52:01.437Z,1021.29
2022-10-29T10:53:01.344Z,1021.32
2022-10-29T10:54:01.575Z,1021.36
2022-10-29T10:55:02.078Z,1021.35
2022-10-29T10:56:01.184Z,1021.37
2022-10-29T10:57:01.253Z,1021.32
2022-10-29T10:58:01.072Z,1021.3
2022-10-29T10:59:01.080Z,1021.31
2022-10-29T11:00:07.672Z,1021.31
2022-10-29T11:01:05.227Z,1021.23
2022-10-29T11:02:02.167Z,1021.24
2022-10-29T11:03:01.180Z,1021.18
2022-10-29T11:04:01.101Z,1021.17
2022-10-29T11:05:05.182Z,1021.18
2022-10-29T11:06:01.074Z,1021.2
2022-10-29T11:07:01.090Z,1021.24
2022-10-29T11:08:01.169Z,1021.2
2022-10-29T11:09:02.061Z,1021.21
2022-10-29T11:10:01.148Z,1021.23
2022-10-29T11:11:01.417Z,1021.21
2022-10-29T11:12:04.162Z,1021.25
2022-10-29T11:13:01.129Z,1021.21
2022-10-29T11:14:01.062Z,1021.24
2022-10-29T11:15:01.917Z,1021.23
2022-10-29T11:16:01.708Z,1021.24
2022-10-29T11:17:01.168Z,1021.26
2022-10-29T11:18:02.190Z,1021.28
2022-10-29T11:19:01.157Z,1021.27
2022-10-29T11:20:01.067Z,1021.24
2022-10-29T11:21:01.151Z,1021.21
2022-10-29T11:22:01.803Z,1021.21
2022-10-29T11:23:00.847Z,1021.24
2022-10-29T11:24:01.515Z,1021.28
2022-10-29T11:25:03.015Z,1021.26
2022-10-29T11:26:01.860Z,1021.27
2022-10-29T11:27:01.347Z,1021.18
2022-10-29T11:28:01.164Z,1021.17
2022-10-29T11:29:02.536Z,1021.18
2022-10-29T11:30:01.700Z,1021.16
2022-10-29T11:31:01.755Z,1021.07
2022-10-29T11:32:02.733Z,1021.12
2022-10-29T11:33:01.737Z,1021.09
2022-10-29T11:34:01.111Z,1021.14
2022-10-29T11:35:01.496Z,1021.1
2022-10-29T11:36:02.176Z,1021.07
2022-10-29T11:37:01.173Z,1021.06
2022-10-29T11:38:00.640Z,1021.04
2022-10-29T11:39:00.300Z,1020.99
2022-10-29T11:39:59.895Z,1021.01
2022-10-29T11:40:59.603Z,1020.97
2022-10-29T11:42:01.651Z,1020.98
2022-10-29T11:43:05.837Z,1020.95
2022-10-29T11:44:01.265Z,1020.96
2022-10-29T11:45:01.167Z,1020.94
2022-10-29T11:46:01.171Z,1020.9
2022-10-29T11:47:01.079Z,1020.95
2022-10-29T11:48:01.752Z,1020.95
2022-10-29T11:49:01.981Z,1020.94
2022-10-29T11:50:01.176Z,1020.94
2022-10-29T11:51:01.371Z,1020.9
2022-10-29T11:52:02.332Z,1020.86
2022-10-29T11:53:02.036Z,1020.84
2022-10-29T11:54:01.140Z,1020.83
2022-10-29T11:55:01.123Z,1020.82
2022-10-29T11:56:01.122Z,1020.82
2022-10-29T11:57:01.133Z,1020.8
2022-10-29T11:58:01.142Z,1020.77
2022-10-29T11:59:01.156Z,1020.76
2022-10-29T12:00:01.862Z,1020.79
2022-10-29T12:01:01.864Z,1020.74
2022-10-29T12:02:01.143Z,1020.76
2022-10-29T12:03:00.930Z,1020.76
2022-10-29T12:04:01.158Z,1020.75
2022-10-29T12:05:01.476Z,1020.67
2022-10-29T12:06:01.148Z,1020.65
2022-10-29T12:07:01.805Z,1020.61
2022-10-29T12:08:04.064Z,1020.64
2022-10-29T12:09:01.781Z,1020.62
2022-10-29T12:10:01.228Z,1020.6
2022-10-29T12:11:02.315Z,1020.61
2022-10-29T12:12:01.156Z,1020.58
2022-10-29T12:13:01.205Z,1020.55
2022-10-29T12:14:01.430Z,1020.57
2022-10-29T12:15:01.415Z,1020.56
2022-10-29T12:16:02.162Z,1020.58
2022-10-29T12:17:02.144Z,1020.55
2022-10-29T12:18:08.312Z,1020.53